メインページ
METAR-TAF:

METAR-TAF

空港 :

イスラマバード, パキスタン

ベナジル・ブット国際空港

緯度: 33-37N, 経度: 073-06E, 海抜: 507m

現時点の気象観測

当レポートは14分前の01:00(UTC)に作成
北東の風 6kt
気温 23°C
湿度 65%
気圧 1008 hPa
視程: 6000m

METAR: OPRN 230100Z 05006KT 6000 NSC 23/16 Q1008.5/29.78

時間: 06:14 (01:14 UTC)

予報

当レポートは3時間44分前の21:30(UTC)に作成
予報は23日の 00時(UTC)から 24日の 06時(UTC)まで有効
北/北東の風 10kt
視程: 4000m
高度4000ftの雲はほとんどない
高度10000ftの雲は散在している
煙霧
23日の 03時(UTC)から 23日の 05時(UTC)まで徐々に
西/北西の風 10kt、最大20ktの突風を伴う
視程10km以上
高度4000ftの雲はほとんどない
確率 %
間 30から UTC
23日の 11時(UTC)から 23日の 15時(UTC)まで一時的に
西/北西の風 10kt、最大25ktの突風を伴う
視程: 6000m
高度4000ftの雲は散在している
近辺で激しい雷雨
23日の 15時(UTC)から 23日の 18時(UTC)まで徐々に
北/北東の風 10kt
視程: 6000m

TAF: OPRN 222130Z 2300/2406 03010KT 4000 HZ FEW040 SCT100 BECMG 2303/2305 30010G20KT 9999 FEW040 PROB 30 TEMPO 2311/2315 30010G25KT 6000 VCTS FEW030TCU/CB SCT040 BECMG 2315/2318 03010KT 6000 NSC

4,000以上の空港の気象観測と天気予報(METAR報とTAF報)

利用可能な観測所は地図上に黄色い丸と赤い丸で示す。

丸の上にカーソルを重ねると観測所名を参照できる。

次にクリックすると気象観測と天気予報を参照できる。

マップの切り替え:黒色「×」印の緑ボタンをクリックして拡大、「-」印の緑ボタンをクリックして縮小、緑色の三角印をクリックして隣りの地図に切り替え


METAR-TAF: